createdAt,value
2018-04-12T00:01:31.400Z,85.00
2018-04-12T00:03:58.846Z,84.90
2018-04-12T00:06:27.037Z,84.70
2018-04-12T00:08:54.489Z,84.60
2018-04-12T00:11:21.921Z,84.60
2018-04-12T00:13:50.156Z,84.60
2018-04-12T00:16:17.708Z,84.60
2018-04-12T00:18:45.138Z,85.20
2018-04-12T00:21:12.613Z,84.50
2018-04-12T00:23:40.066Z,84.60
2018-04-12T00:26:07.480Z,85.60
2018-04-12T00:28:35.687Z,85.80
2018-04-12T00:31:03.125Z,85.80
2018-04-12T00:33:31.321Z,86.00
2018-04-12T00:35:58.748Z,85.90
2018-04-12T00:38:26.184Z,85.80
2018-04-12T00:40:53.632Z,85.80
2018-04-12T00:43:21.082Z,85.90
2018-04-12T00:45:48.513Z,85.80
2018-04-12T00:48:15.950Z,86.00
2018-04-12T00:50:43.372Z,86.00
2018-04-12T00:53:11.582Z,86.10
2018-04-12T00:55:39.524Z,86.80
2018-04-12T00:58:06.971Z,86.10
2018-04-12T01:00:35.186Z,86.40
2018-04-12T01:03:02.605Z,86.40
2018-04-12T01:05:30.825Z,86.60
2018-04-12T01:07:58.253Z,86.50
2018-04-12T01:10:25.685Z,86.70
2018-04-12T01:12:53.884Z,87.00
2018-04-12T01:15:21.329Z,87.00
2018-04-12T01:17:48.761Z,87.00
2018-04-12T01:20:16.204Z,87.10
2018-04-12T01:22:43.644Z,87.30
2018-04-12T01:25:11.090Z,87.30
2018-04-12T01:27:38.545Z,87.60
2018-04-12T01:30:06.000Z,87.60
2018-04-12T01:32:33.433Z,87.70
2018-04-12T01:35:00.860Z,87.90
2018-04-12T01:37:29.076Z,88.00
2018-04-12T01:39:56.524Z,88.00
2018-04-12T01:42:23.971Z,87.90
2018-04-12T01:44:51.393Z,88.00
2018-04-12T01:47:19.603Z,88.30
2018-04-12T01:49:47.025Z,88.30
2018-04-12T01:52:15.237Z,88.20
2018-04-12T01:54:42.703Z,88.20
2018-04-12T01:57:10.144Z,88.80
2018-04-12T01:59:37.585Z,88.30
2018-04-12T02:02:05.028Z,88.10
2018-04-12T02:04:33.249Z,88.30
2018-04-12T02:07:00.693Z,88.30
2018-04-12T02:09:28.128Z,88.40
2018-04-12T02:11:55.558Z,88.30
2018-04-12T02:14:23.765Z,88.40
2018-04-12T02:16:51.207Z,88.40
2018-04-12T02:19:18.633Z,88.50
2018-04-12T02:21:46.064Z,88.50
2018-04-12T02:24:13.500Z,88.50
2018-04-12T02:26:40.980Z,88.40
2018-04-12T02:29:09.238Z,88.70
2018-04-12T02:31:36.669Z,88.70
2018-04-12T02:34:04.118Z,88.90
2018-04-12T02:36:32.302Z,88.80
2018-04-12T02:38:59.772Z,88.80
2018-04-12T02:41:27.184Z,88.80
2018-04-12T02:43:55.407Z,88.70
2018-04-12T02:46:22.829Z,88.70
2018-04-12T02:48:50.277Z,88.70
2018-04-12T02:51:18.468Z,88.70
2018-04-12T02:53:45.905Z,88.60
2018-04-12T02:56:13.340Z,88.60
2018-04-12T02:58:40.789Z,88.50
2018-04-12T03:01:08.233Z,88.70
2018-04-12T03:03:35.680Z,88.30
2018-04-12T03:06:03.140Z,88.30
2018-04-12T03:08:30.615Z,88.40
2018-04-12T03:10:58.017Z,88.40
2018-04-12T03:13:25.460Z,88.50
2018-04-12T03:15:52.894Z,88.50
2018-04-12T03:18:21.101Z,88.80
2018-04-12T03:20:48.528Z,88.70
2018-04-12T03:23:16.743Z,89.20
2018-04-12T03:25:44.177Z,89.20
2018-04-12T03:28:11.601Z,89.40
2018-04-12T03:30:40.225Z,89.40
2018-04-12T03:33:07.679Z,89.40
2018-04-12T03:35:35.116Z,89.40
2018-04-12T03:38:03.313Z,89.50
2018-04-12T03:40:30.752Z,89.50
2018-04-12T03:42:58.188Z,89.70
2018-04-12T03:45:26.404Z,90.00
2018-04-12T03:47:54.720Z,89.90
2018-04-12T03:50:22.201Z,90.00
2018-04-12T03:52:49.612Z,90.20
2018-04-12T03:55:17.813Z,90.20
2018-04-12T03:57:46.014Z,90.30
2018-04-12T04:00:13.456Z,90.20
2018-04-12T04:02:41.657Z,90.30
2018-04-12T04:05:09.101Z,90.30
2018-04-12T04:07:36.539Z,90.40
2018-04-12T04:10:04.759Z,90.50
2018-04-12T04:12:32.214Z,90.50
2018-04-12T04:15:20.304Z,90.70
2018-04-12T04:18:00.357Z,90.90
2018-04-12T04:20:40.621Z,90.80
2018-04-12T04:23:08.067Z,90.80
2018-04-12T04:25:36.278Z,90.50
2018-04-12T04:28:03.726Z,90.50
2018-04-12T04:30:31.189Z,90.30
2018-04-12T04:32:58.639Z,90.00
2018-04-12T04:35:26.080Z,90.30
2018-04-12T04:37:53.527Z,90.00
2018-04-12T04:40:21.729Z,89.80
2018-04-12T04:42:49.169Z,89.80
2018-04-12T04:45:16.602Z,89.70
2018-04-12T04:47:44.816Z,89.70
2018-04-12T04:50:12.289Z,89.70
2018-04-12T04:52:39.732Z,89.50
2018-04-12T04:55:07.165Z,89.30
2018-04-12T04:57:34.608Z,89.40
2018-04-12T05:00:02.045Z,89.50
2018-04-12T05:02:29.495Z,89.40
2018-04-12T05:04:56.929Z,88.90
2018-04-12T05:07:24.393Z,89.40
2018-04-12T05:09:51.850Z,89.30
2018-04-12T05:12:19.304Z,89.20
2018-04-12T05:14:46.760Z,89.20
2018-04-12T05:17:14.216Z,89.00
2018-04-12T05:19:41.657Z,88.90
2018-04-12T05:22:09.113Z,87.70
2018-04-12T05:24:36.551Z,87.40
2018-04-12T05:27:04.005Z,87.20
2018-04-12T05:29:31.451Z,87.00
2018-04-12T05:31:58.917Z,86.90
2018-04-12T05:34:26.374Z,87.00
2018-04-12T05:36:53.797Z,86.90
2018-04-12T05:39:22.017Z,86.30
2018-04-12T05:41:49.440Z,86.10
2018-04-12T05:44:16.886Z,86.30
2018-04-12T05:46:45.089Z,86.20
2018-04-12T05:49:12.531Z,86.20
2018-04-12T05:51:39.969Z,86.00
2018-04-12T05:54:08.182Z,85.50
2018-04-12T05:56:35.611Z,85.40
2018-04-12T05:59:03.050Z,85.30
2018-04-12T06:01:31.252Z,85.10
2018-04-12T06:03:58.699Z,85.10
2018-04-12T06:06:26.136Z,84.80
2018-04-12T06:08:54.345Z,84.60
2018-04-12T06:11:21.785Z,84.50
2018-04-12T06:13:49.229Z,84.30
2018-04-12T06:16:16.661Z,84.00
2018-04-12T06:18:44.869Z,84.20
2018-04-12T06:21:12.300Z,83.50
2018-04-12T06:23:40.516Z,83.20
2018-04-12T06:26:07.959Z,83.20
2018-04-12T06:28:35.397Z,83.10
2018-04-12T06:31:02.857Z,82.60
2018-04-12T06:33:30.297Z,82.50
2018-04-12T06:35:58.501Z,82.10
2018-04-12T06:38:25.941Z,82.00
2018-04-12T06:40:53.392Z,82.30
2018-04-12T06:43:20.868Z,81.90
2018-04-12T06:45:48.308Z,82.10
2018-04-12T06:48:15.756Z,82.10
2018-04-12T06:50:43.961Z,82.40
2018-04-12T06:53:11.397Z,82.40
2018-04-12T06:55:38.874Z,82.50
2018-04-12T06:58:06.299Z,82.20
2018-04-12T07:00:33.736Z,82.30
2018-04-12T07:03:01.941Z,82.60
2018-04-12T07:05:29.386Z,82.40
2018-04-12T07:07:56.858Z,82.10
2018-04-12T07:10:24.312Z,82.10
2018-04-12T07:12:51.744Z,82.10
2018-04-12T07:15:19.985Z,81.40
2018-04-12T07:17:47.426Z,81.30
2018-04-12T07:20:14.880Z,80.90
2018-04-12T07:22:42.316Z,80.50
2018-04-12T07:25:09.754Z,80.40
2018-04-12T07:27:37.204Z,80.20
2018-04-12T07:30:04.680Z,79.80
2018-04-12T07:32:32.115Z,79.70
2018-04-12T07:34:59.573Z,79.10
2018-04-12T07:37:27.014Z,78.90
2018-04-12T07:39:55.256Z,76.40
2018-04-12T07:42:22.691Z,76.40
2018-04-12T07:44:50.136Z,76.00
2018-04-12T07:47:17.569Z,75.70
2018-04-12T07:49:45.510Z,75.20
2018-04-12T07:52:13.740Z,73.60
2018-04-12T07:54:41.221Z,73.60
2018-04-12T07:57:08.653Z,74.10
2018-04-12T07:59:36.087Z,74.10
2018-04-12T08:02:03.585Z,74.40
2018-04-12T08:04:30.970Z,73.70
2018-04-12T08:06:59.214Z,72.70
2018-04-12T08:09:26.643Z,72.60
2018-04-12T08:11:54.101Z,72.60
2018-04-12T08:14:21.547Z,72.20
2018-04-12T08:16:49.004Z,72.50
2018-04-12T08:19:16.448Z,72.40
2018-04-12T08:21:43.893Z,72.60
2018-04-12T08:24:11.333Z,72.50
2018-04-12T08:26:39.541Z,72.00
2018-04-12T08:29:06.980Z,72.00
2018-04-12T08:31:34.426Z,71.90
2018-04-12T08:34:02.640Z,71.30
2018-04-12T08:36:30.073Z,71.30
2018-04-12T08:38:57.508Z,71.20
2018-04-12T08:41:25.710Z,70.00
2018-04-12T08:43:53.156Z,70.00
2018-04-12T08:46:20.588Z,70.70
2018-04-12T08:48:48.800Z,70.40
2018-04-12T08:51:16.244Z,70.40
2018-04-12T08:53:43.689Z,69.90
2018-04-12T08:56:11.128Z,70.40
2018-04-12T08:58:39.372Z,70.00
2018-04-12T09:01:06.813Z,70.00
2018-04-12T09:03:35.021Z,69.50
2018-04-12T09:06:03.224Z,69.50
2018-04-12T09:08:31.423Z,69.40
2018-04-12T09:10:58.862Z,69.40
2018-04-12T09:13:26.293Z,68.40
2018-04-12T09:15:54.508Z,67.90
2018-04-12T09:18:21.947Z,67.90
2018-04-12T09:20:49.381Z,68.10
2018-04-12T09:23:17.595Z,68.80
2018-04-12T09:25:45.041Z,68.80
2018-04-12T09:28:12.496Z,67.90
2018-04-12T09:30:39.917Z,67.30
2018-04-12T09:33:07.408Z,66.20
2018-04-12T09:35:34.838Z,66.40
2018-04-12T09:38:03.069Z,65.40
2018-04-12T09:40:30.508Z,65.40
2018-04-12T09:42:57.956Z,66.20
2018-04-12T09:45:26.084Z,66.60
2018-04-12T09:47:53.549Z,66.60
2018-04-12T09:50:21.752Z,67.90
2018-04-12T09:52:49.202Z,67.80
2018-04-12T09:55:16.662Z,68.10
2018-04-12T09:57:44.092Z,68.70
2018-04-12T10:00:12.296Z,68.90
2018-04-12T10:02:45.457Z,68.90
2018-04-12T10:05:19.279Z,67.20
2018-04-12T10:07:51.656Z,67.20
2018-04-12T10:10:19.119Z,65.90
2018-04-12T10:12:46.567Z,64.70
2018-04-12T10:15:14.026Z,65.00
2018-04-12T10:17:41.475Z,63.90
2018-04-12T10:20:08.920Z,63.70
2018-04-12T10:22:36.353Z,63.10
2018-04-12T10:25:04.609Z,62.90
2018-04-12T10:27:32.048Z,62.80
2018-04-12T10:29:59.492Z,61.90
2018-04-12T10:32:26.932Z,63.70
2018-04-12T10:34:54.373Z,62.90
2018-04-12T10:37:21.812Z,62.30
2018-04-12T10:39:50.038Z,62.50
2018-04-12T10:42:17.468Z,62.30
2018-04-12T10:44:44.892Z,61.60
2018-04-12T10:47:13.102Z,61.40
2018-04-12T10:49:40.572Z,61.40
2018-04-12T10:52:07.992Z,61.30
2018-04-12T10:54:35.428Z,60.60
2018-04-12T10:57:03.636Z,61.10
2018-04-12T10:59:31.077Z,61.10
2018-04-12T11:01:58.513Z,60.00
2018-04-12T11:04:26.720Z,60.30
2018-04-12T11:06:54.160Z,60.30
2018-04-12T11:09:21.592Z,60.90
2018-04-12T11:11:49.033Z,61.60
2018-04-12T11:14:16.478Z,61.70
2018-04-12T11:16:43.929Z,61.00
2018-04-12T11:19:11.377Z,61.80
2018-04-12T11:21:38.836Z,62.90
2018-04-12T11:24:06.274Z,64.00
2018-04-12T11:26:33.717Z,63.60
2018-04-12T11:29:01.151Z,63.90
2018-04-12T11:31:29.362Z,63.40
2018-04-12T11:33:56.798Z,63.30
2018-04-12T11:36:24.250Z,63.40
2018-04-12T11:38:51.668Z,63.10
2018-04-12T11:41:19.129Z,61.40
2018-04-12T11:43:47.340Z,60.30
2018-04-12T11:46:14.765Z,60.80
2018-04-12T11:48:42.975Z,60.00
2018-04-12T11:51:10.404Z,60.00
2018-04-12T11:53:38.632Z,59.20
2018-04-12T11:56:06.105Z,59.20
2018-04-12T11:58:33.526Z,59.90
2018-04-12T12:01:00.957Z,60.90
2018-04-12T12:03:28.402Z,60.60
2018-04-12T12:05:56.596Z,60.90
2018-04-12T12:08:24.032Z,60.80
2018-04-12T12:10:51.478Z,60.10
2018-04-12T12:13:19.708Z,60.00
2018-04-12T12:15:47.178Z,60.70
2018-04-12T12:18:14.614Z,59.80
2018-04-12T12:20:42.052Z,59.20
2018-04-12T12:23:09.545Z,58.20
2018-04-12T12:25:36.986Z,58.50
2018-04-12T12:28:04.428Z,59.50
2018-04-12T12:30:31.882Z,60.00
2018-04-12T12:32:59.313Z,60.90
2018-04-12T12:35:27.717Z,62.40
2018-04-12T12:37:55.162Z,62.30
2018-04-12T12:40:22.599Z,62.60
2018-04-12T12:42:50.052Z,62.60
2018-04-12T12:45:17.574Z,61.40
2018-04-12T12:47:45.013Z,61.60
2018-04-12T12:50:12.445Z,60.70
2018-04-12T12:52:39.904Z,61.40
2018-04-12T12:55:07.378Z,62.30
2018-04-12T12:57:34.802Z,61.90
2018-04-12T13:00:02.251Z,62.40
2018-04-12T13:02:30.497Z,61.70
2018-04-12T13:04:57.940Z,61.70
2018-04-12T13:07:25.412Z,62.10
2018-04-12T13:09:52.848Z,62.30
2018-04-12T13:12:20.283Z,63.00
2018-04-12T13:14:47.742Z,62.50
2018-04-12T13:17:15.221Z,62.90
2018-04-12T13:19:42.660Z,63.10
2018-04-12T13:22:10.096Z,62.50
2018-04-12T13:24:37.549Z,63.30
2018-04-12T13:27:04.969Z,63.20
2018-04-12T13:29:33.181Z,64.20
2018-04-12T13:32:00.637Z,64.20
2018-04-12T13:34:28.096Z,63.50
2018-04-12T13:36:55.537Z,62.90
2018-04-12T13:39:23.014Z,62.80
2018-04-12T13:41:50.450Z,62.20
2018-04-12T13:44:17.926Z,63.20
2018-04-12T13:46:45.344Z,63.00
2018-04-12T13:49:12.783Z,63.10
2018-04-12T13:51:40.992Z,63.40
2018-04-12T13:54:08.424Z,63.40
2018-04-12T13:56:36.726Z,62.70
2018-04-12T13:59:04.888Z,63.30
2018-04-12T14:01:32.325Z,63.20
2018-04-12T14:03:59.761Z,63.10
2018-04-12T14:06:27.212Z,63.20
2018-04-12T14:08:54.656Z,63.00
2018-04-12T14:11:22.133Z,63.10
2018-04-12T14:13:50.331Z,63.10
2018-04-12T14:16:17.768Z,62.90
2018-04-12T14:18:45.968Z,62.80
2018-04-12T14:21:13.400Z,62.80
2018-04-12T14:23:41.640Z,61.10
2018-04-12T14:26:09.103Z,61.10
2018-04-12T14:28:36.534Z,61.30
2018-04-12T14:31:03.987Z,61.50
2018-04-12T14:33:31.413Z,60.90
2018-04-12T14:35:58.853Z,60.70
2018-04-12T14:38:27.051Z,59.80
2018-04-12T14:40:54.490Z,59.80
2018-04-12T14:43:21.925Z,59.70
2018-04-12T14:45:50.146Z,59.50
2018-04-12T14:48:17.591Z,59.50
2018-04-12T14:50:45.028Z,59.40
2018-04-12T14:53:13.224Z,58.50
2018-04-12T14:55:40.661Z,58.50
2018-04-12T14:58:08.105Z,58.70
2018-04-12T15:00:36.312Z,59.00
2018-04-12T15:03:03.755Z,58.90
2018-04-12T15:05:31.196Z,58.50
2018-04-12T15:07:58.649Z,58.90
2018-04-12T15:10:26.848Z,59.60
2018-04-12T15:12:54.281Z,59.60
2018-04-12T15:15:21.716Z,58.90
2018-04-12T15:17:49.153Z,58.30
2018-04-12T15:20:16.584Z,56.90
2018-04-12T15:22:44.035Z,58.20
2018-04-12T15:25:11.469Z,57.70
2018-04-12T15:27:38.917Z,57.70
2018-04-12T15:30:06.361Z,58.00
2018-04-12T15:32:34.567Z,57.90
2018-04-12T15:35:02.009Z,57.90
2018-04-12T15:37:29.446Z,59.00
2018-04-12T15:39:57.650Z,59.40
2018-04-12T15:42:25.092Z,59.30
2018-04-12T15:44:52.540Z,59.80
2018-04-12T15:47:20.756Z,59.90
2018-04-12T15:49:48.189Z,59.90
2018-04-12T15:52:15.624Z,60.70
2018-04-12T15:54:43.090Z,60.80
2018-04-12T15:57:10.529Z,61.20
2018-04-12T15:59:38.733Z,61.70
2018-04-12T16:02:08.005Z,61.70
2018-04-12T16:04:36.204Z,62.40
2018-04-12T16:07:03.645Z,62.40
2018-04-12T16:09:31.087Z,62.70
2018-04-12T16:11:59.288Z,63.70
2018-04-12T16:14:26.724Z,63.60
2018-04-12T16:16:54.165Z,64.30
2018-04-12T16:19:22.497Z,64.60
2018-04-12T16:21:49.934Z,64.50
2018-04-12T16:24:17.378Z,64.80
2018-04-12T16:26:44.817Z,65.00
2018-04-12T16:29:12.252Z,65.40
2018-04-12T16:31:40.461Z,67.00
2018-04-12T16:34:08.721Z,66.30
2018-04-12T16:36:36.919Z,66.50
2018-04-12T16:39:04.413Z,66.40
2018-04-12T16:41:31.797Z,66.70
2018-04-12T16:44:00.017Z,67.30
2018-04-12T16:46:27.454Z,67.30
2018-04-12T16:48:54.901Z,67.60
2018-04-12T16:51:22.333Z,67.80
2018-04-12T16:53:50.550Z,70.00
2018-04-12T16:56:17.994Z,70.00
2018-04-12T16:58:45.432Z,70.80
2018-04-12T17:01:12.877Z,72.00
2018-04-12T17:03:41.133Z,73.10
2018-04-12T17:06:08.517Z,73.10
2018-04-12T17:08:35.957Z,74.10
2018-04-12T17:11:04.166Z,75.30
2018-04-12T17:13:31.610Z,75.30
2018-04-12T17:15:59.046Z,73.70
2018-04-12T17:18:27.257Z,75.20
2018-04-12T17:20:54.695Z,75.20
2018-04-12T17:23:22.133Z,76.50
2018-04-12T17:25:50.343Z,78.60
2018-04-12T17:28:17.777Z,78.50
2018-04-12T17:30:46.064Z,78.50
2018-04-12T17:33:13.518Z,78.70
2018-04-12T17:35:40.943Z,77.30
2018-04-12T17:38:09.163Z,78.30
2018-04-12T17:40:36.600Z,78.30
2018-04-12T17:43:04.037Z,77.70
2018-04-12T17:45:32.234Z,78.40
2018-04-12T17:47:59.685Z,78.40
2018-04-12T17:50:27.117Z,79.20
2018-04-12T17:52:55.333Z,81.50
2018-04-12T17:55:22.765Z,81.40
2018-04-12T17:57:50.512Z,81.80
2018-04-12T18:00:18.712Z,83.00
2018-04-12T18:02:46.149Z,82.90
2018-04-12T18:05:13.593Z,82.60
2018-04-12T18:07:41.799Z,83.00
2018-04-12T18:10:09.239Z,82.90
2018-04-12T18:12:36.700Z,83.70
2018-04-12T18:15:04.153Z,84.20
2018-04-12T18:17:31.599Z,84.90
2018-04-12T18:19:59.791Z,85.80
2018-04-12T18:22:27.244Z,85.80
2018-04-12T18:24:54.688Z,86.00
2018-04-12T18:27:22.124Z,86.10
2018-04-12T18:29:51.342Z,86.30
2018-04-12T18:32:19.549Z,86.60
2018-04-12T18:34:51.606Z,86.80
2018-04-12T18:37:19.048Z,86.80
2018-04-12T18:39:46.497Z,87.00
2018-04-12T18:42:13.961Z,87.00
2018-04-12T18:44:41.389Z,87.10
2018-04-12T18:47:09.598Z,87.50
2018-04-12T18:49:37.040Z,87.40
2018-04-12T18:52:04.480Z,87.50
2018-04-12T18:54:32.672Z,87.50
2018-04-12T18:57:00.122Z,87.50
2018-04-12T19:20:54.232Z,59.70
2018-04-12T19:23:21.665Z,59.70
2018-04-12T19:44:17.244Z,80.60
2018-04-12T19:46:44.676Z,81.60
2018-04-12T19:49:12.120Z,82.50
2018-04-12T19:51:39.541Z,83.30
2018-04-12T19:54:06.984Z,83.80
2018-04-12T19:56:34.416Z,84.20
2018-04-12T19:59:01.867Z,84.70
2018-04-12T20:01:29.297Z,85.20
2018-04-12T20:03:56.740Z,85.50
2018-04-12T20:06:24.941Z,86.30
2018-04-12T20:08:52.392Z,86.30
2018-04-12T20:11:19.833Z,86.30
2018-04-12T20:13:47.285Z,87.20
2018-04-12T20:16:15.484Z,87.30
2018-04-12T20:18:42.915Z,87.30
2018-04-12T20:21:10.360Z,87.80
2018-04-12T20:23:38.569Z,88.70
2018-04-12T20:26:06.003Z,88.60
2018-04-12T20:28:33.449Z,88.60
2018-04-12T20:31:00.889Z,89.00
2018-04-12T20:33:29.101Z,90.10
2018-04-12T20:35:56.519Z,90.00
2018-04-12T20:38:24.733Z,90.00
2018-04-12T20:40:52.173Z,90.00
2018-04-12T20:43:19.613Z,90.00
2018-04-12T20:45:47.804Z,90.00
2018-04-12T20:48:15.252Z,90.00
2018-04-12T20:50:42.680Z,90.20
2018-04-12T20:53:10.148Z,90.20
2018-04-12T20:55:38.359Z,90.20
2018-04-12T20:58:05.803Z,90.30
2018-04-12T21:00:33.285Z,90.30
2018-04-12T21:03:01.444Z,90.30
2018-04-12T21:05:28.884Z,90.30
2018-04-12T21:07:56.321Z,90.20
2018-04-12T21:10:24.529Z,90.30
2018-04-12T21:12:51.959Z,90.20
2018-04-12T21:15:19.400Z,90.40
2018-04-12T21:17:47.609Z,90.60
2018-04-12T21:20:15.158Z,90.60
2018-04-12T21:22:42.600Z,90.70
2018-04-12T21:25:10.052Z,90.90
2018-04-12T21:27:38.241Z,90.90
2018-04-12T21:30:05.684Z,90.90
2018-04-12T21:32:33.129Z,90.80
2018-04-12T21:35:01.333Z,90.70
2018-04-12T21:37:28.768Z,90.70
2018-04-12T21:39:56.216Z,90.70
2018-04-12T21:42:24.417Z,90.70
2018-04-12T21:44:51.866Z,90.70
2018-04-12T21:47:19.300Z,90.70
2018-04-12T21:49:47.527Z,90.60
2018-04-12T21:52:14.938Z,90.60
2018-04-12T21:54:42.377Z,90.70
2018-04-12T21:57:10.590Z,91.10
2018-04-12T21:59:38.029Z,91.00
2018-04-12T22:02:05.463Z,91.20
2018-04-12T22:04:33.660Z,91.30
2018-04-12T22:07:01.097Z,91.30
2018-04-12T22:09:29.311Z,91.20
2018-04-12T22:11:56.753Z,91.20
2018-04-12T22:14:24.196Z,91.20
2018-04-12T22:16:51.660Z,91.30
2018-04-12T22:19:19.101Z,91.20
2018-04-12T22:21:46.539Z,91.10
2018-04-12T22:24:14.753Z,91.10
2018-04-12T22:26:42.190Z,91.10
2018-04-12T22:29:09.679Z,91.10
2018-04-12T22:31:37.115Z,91.10
2018-04-12T22:34:04.551Z,91.10
2018-04-12T22:36:31.992Z,91.10
2018-04-12T22:39:00.216Z,91.10
2018-04-12T22:41:27.644Z,91.10
2018-04-12T22:43:55.088Z,91.10
2018-04-12T22:46:22.536Z,91.10
2018-04-12T22:48:50.743Z,91.20
2018-04-12T22:51:18.179Z,91.20
2018-04-12T22:53:45.623Z,91.30
2018-04-12T22:56:13.829Z,91.20
2018-04-12T22:58:41.281Z,91.20
2018-04-12T23:01:08.721Z,91.20
2018-04-12T23:03:36.156Z,91.10
2018-04-12T23:06:04.366Z,91.10
2018-04-12T23:08:31.805Z,91.10
2018-04-12T23:10:59.240Z,91.00
2018-04-12T23:13:27.450Z,91.10
2018-04-12T23:15:54.888Z,91.10
2018-04-12T23:18:22.329Z,91.10
2018-04-12T23:20:50.540Z,91.30
2018-04-12T23:23:17.976Z,91.20
2018-04-12T23:25:45.425Z,91.20
2018-04-12T23:28:13.622Z,91.10
2018-04-12T23:30:42.417Z,91.10
2018-04-12T23:33:09.861Z,91.00
2018-04-12T23:35:37.312Z,90.90
2018-04-12T23:38:04.749Z,90.90
2018-04-12T23:40:32.956Z,90.90
2018-04-12T23:43:00.403Z,90.90
2018-04-12T23:45:27.848Z,90.90
2018-04-12T23:47:55.288Z,90.80
2018-04-12T23:50:22.737Z,90.80
2018-04-12T23:52:50.947Z,90.80
2018-04-12T23:55:18.400Z,90.80
2018-04-12T23:57:45.848Z,90.80
